Time;durP1;ratioP1;P1;durP2;ratioP2;P2;SDS_P1;SDS_P2;PMS_P1;PMS_P2;Temp;Humidity;BMP_temperature;BMP_pressure;BME280_temperature;BME280_humidity;BME280_pressure;Samples;Min_cycle;Max_cycle;Signal;HPM_P1;HPM_P2
2021/03/25 00:01:35;;;;;;;9.57;8.30;;;3.40;33.90;;;;;;5053597;28;20554;-74
2021/03/25 00:04:01;;;;;;;9.10;8.13;;;3.30;34.10;;;;;;5052151;28;20214;-74
2021/03/25 00:06:28;;;;;;;11.48;8.65;;;3.30;34.20;;;;;;5053572;28;20549;-74
2021/03/25 00:08:55;;;;;;;11.68;7.10;;;3.30;34.50;;;;;;5052081;28;20229;-74
2021/03/25 00:11:21;;;;;;;9.00;6.45;;;3.30;34.50;;;;;;5053768;28;20252;-75
2021/03/25 00:13:46;;;;;;;12.00;7.57;;;3.30;34.20;;;;;;5053634;28;20635;-72
2021/03/25 00:16:13;;;;;;;9.43;8.53;;;3.30;34.30;;;;;;5053185;28;20964;-75
2021/03/25 00:18:39;;;;;;;8.55;7.70;;;3.20;34.40;;;;;;5052674;28;20198;-74
2021/03/25 00:21:07;;;;;;;13.10;9.05;;;3.20;34.90;;;;;;5052755;28;20182;-74
2021/03/25 00:23:33;;;;;;;7.93;7.13;;;3.20;34.60;;;;;;5051556;28;20186;-74
2021/03/25 00:25:59;;;;;;;7.93;7.13;;;3.10;34.90;;;;;;5052772;28;20235;-74
2021/03/25 00:28:24;;;;;;;10.20;8.30;;;3.10;34.90;;;;;;5052833;28;20485;-73
2021/03/25 00:30:50;;;;;;;10.10;7.60;;;3.00;34.70;;;;;;5050543;28;20201;-72
2021/03/25 00:33:17;;;;;;;11.77;8.60;;;2.90;35.40;;;;;;5051281;28;20181;-74
2021/03/25 00:35:44;;;;;;;8.10;7.40;;;2.90;35.60;;;;;;5051705;28;20184;-74
2021/03/25 00:38:11;;;;;;;10.73;7.85;;;2.90;35.60;;;;;;5052719;28;20195;-74
2021/03/25 00:40:37;;;;;;;8.38;7.55;;;2.80;36.30;;;;;;5051752;28;20532;-74
2021/03/25 00:43:05;;;;;;;14.50;7.68;;;2.80;36.30;;;;;;5052318;28;20257;-74
2021/03/25 00:45:34;;;;;;;9.35;7.07;;;2.80;36.30;;;;;;5051108;28;20671;-74
2021/03/25 00:47:59;;;;;;;9.95;7.10;;;2.70;36.20;;;;;;5052128;28;20619;-74
2021/03/25 00:50:33;;;;;;;9.50;7.63;;;2.80;36.30;;;;;;5049985;28;20261;-74
2021/03/25 00:53:00;;;;;;;8.25;6.75;;;2.80;36.30;;;;;;5051908;28;20201;-75
2021/03/25 00:55:26;;;;;;;8.13;7.28;;;2.80;36.30;;;;;;5052666;28;20177;-74
2021/03/25 00:57:52;;;;;;;12.75;7.57;;;2.90;36.40;;;;;;5051874;28;20689;-74
2021/03/25 01:00:25;;;;;;;11.20;7.00;;;2.90;36.30;;;;;;5049992;28;20186;-74
2021/03/25 01:02:51;;;;;;;9.65;8.15;;;2.90;36.40;;;;;;5052013;28;20788;-74
2021/03/25 01:05:17;;;;;;;9.43;8.63;;;2.90;35.70;;;;;;5051958;28;20186;-74
2021/03/25 01:07:43;;;;;;;8.60;7.65;;;2.80;36.30;;;;;;5050609;28;20698;-74
2021/03/25 01:10:17;;;;;;;7.87;7.10;;;2.70;36.20;;;;;;5051248;28;20182;-73
2021/03/25 01:12:43;;;;;;;11.82;7.40;;;2.70;36.20;;;;;;5051447;28;20683;-75
2021/03/25 01:15:10;;;;;;;11.23;7.57;;;2.70;36.20;;;;;;5051774;28;20265;-74
2021/03/25 01:17:47;;;;;;;9.00;8.18;;;2.70;36.20;;;;;;5050313;28;20254;-75
2021/03/25 01:20:24;;;;;;;10.32;7.50;;;2.70;36.20;;;;;;5050964;28;20190;-74
2021/03/25 01:22:50;;;;;;;10.07;6.72;;;2.70;36.20;;;;;;5050539;28;20189;-74
2021/03/25 01:25:17;;;;;;;11.73;8.30;;;2.70;36.20;;;;;;5050676;28;20240;-75
2021/03/25 01:27:42;;;;;;;8.48;7.10;;;2.70;36.20;;;;;;5050487;28;20418;-74
2021/03/25 01:30:09;;;;;;;7.37;6.57;;;2.70;36.20;;;;;;5050720;28;20553;-75
2021/03/25 01:32:34;;;;;;;8.57;7.65;;;2.70;36.20;;;;;;5049264;28;20216;-73
2021/03/25 01:35:00;;;;;;;5.80;5.30;;;2.80;36.30;;;;;;5049690;28;20179;-74
2021/03/25 01:37:26;;;;;;;9.53;5.70;;;2.70;36.20;;;;;;5049627;28;20186;-75
2021/03/25 01:39:52;;;;;;;7.13;6.40;;;2.70;36.20;;;;;;5050211;28;20178;-73
2021/03/25 01:42:27;;;;;;;12.30;6.27;;;2.70;36.20;;;;;;5051068;28;20189;-74
2021/03/25 01:44:53;;;;;;;12.05;6.43;;;2.60;36.10;;;;;;5051202;28;20917;-75
2021/03/25 01:47:19;;;;;;;7.67;6.50;;;2.60;36.50;;;;;;5049531;28;20178;-74
2021/03/25 01:49:45;;;;;;;8.07;7.33;;;2.60;36.60;;;;;;5050086;28;20212;-75
2021/03/25 01:52:23;;;;;;;11.17;6.73;;;2.70;49.30;;;;;;5050675;28;20488;-74
2021/03/25 01:55:24;;;;;;;10.57;6.80;;;2.60;36.10;;;;;;5050946;28;20409;-75
2021/03/25 01:58:08;;;;;;;9.57;6.25;;;2.60;36.20;;;;;;5049555;28;20205;-73
2021/03/25 02:00:49;;;;;;;8.02;6.40;;;2.60;36.60;;;;;;5050045;28;20178;-75
2021/03/25 02:03:35;;;;;;;6.22;5.63;;;2.50;35.50;;;;;;5049607;28;20559;-75
2021/03/25 02:06:17;;;;;;;7.47;6.25;;;2.50;36.10;;;;;;5049414;28;20727;-75
2021/03/25 02:08:48;;;;;;;8.38;6.60;;;2.50;36.10;;;;;;5052294;28;20690;-73
2021/03/25 02:11:38;;;;;;;10.07;7.03;;;2.40;35.90;;;;;;5054846;28;20209;-74
2021/03/25 02:14:15;;;;;;;9.13;6.80;;;2.30;35.90;;;;;;5054886;28;20655;-75
2021/03/25 02:17:02;;;;;;;6.53;5.93;;;2.30;36.50;;;;;;5053406;28;20320;-75
2021/03/25 02:19:49;;;;;;;6.25;5.55;;;2.20;36.80;;;;;;5053940;28;20210;-74
2021/03/25 02:23:00;;;;;;;15.27;6.45;;;2.20;37.10;;;;;;5053217;28;20192;-74
2021/03/25 02:25:45;;;;;;;8.13;6.38;;;2.20;37.30;;;;;;5054720;28;20186;-73
2021/03/25 02:28:34;;;;;;;6.93;6.13;;;2.20;37.30;;;;;;5054559;28;20243;-75
2021/03/25 02:31:16;;;;;;;6.80;6.10;;;2.20;37.70;;;;;;5052631;28;20747;-75
2021/03/25 02:33:47;;;;;;;9.57;6.82;;;2.10;37.90;;;;;;5054585;28;20209;-76
2021/03/25 02:36:17;;;;;;;8.18;7.38;;;2.10;38.20;;;;;;5052871;28;20179;-73
2021/03/25 02:38:47;;;;;;;7.45;6.45;;;2.10;38.20;;;;;;5054012;28;20608;-74
2021/03/25 02:41:19;;;;;;;8.80;5.68;;;2.10;38.20;;;;;;5054234;28;20185;-75
2021/03/25 02:44:02;;;;;;;7.30;6.60;;;2.10;38.20;;;;;;5053941;28;20263;-74
2021/03/25 02:46:32;;;;;;;7.18;6.47;;;2.10;38.20;;;;;;5053860;28;20304;-74
2021/03/25 02:49:02;;;;;;;8.40;5.60;;;2.10;38.20;;;;;;5053161;28;20574;-75
2021/03/25 02:51:43;;;;;;;8.50;6.68;;;2.10;38.40;;;;;;5053597;28;20212;-73
2021/03/25 02:54:09;;;;;;;11.52;6.25;;;2.10;37.80;;;;;;5054058;28;20187;-75
2021/03/25 02:56:55;;;;;;;7.33;5.93;;;2.00;38.10;;;;;;5053847;28;20262;-74
2021/03/25 02:59:41;;;;;;;9.27;6.75;;;2.10;38.20;;;;;;5051726;28;20432;-74
2021/03/25 03:02:34;;;;;;;10.95;6.68;;;2.00;37.70;;;;;;5052440;28;20262;-74
2021/03/25 03:05:16;;;;;;;8.70;7.00;;;2.00;38.10;;;;;;5054053;28;20183;-74
2021/03/25 03:07:49;;;;;;;7.22;6.20;;;1.90;38.10;;;;;;5053240;28;20206;-74
2021/03/25 03:10:21;;;;;;;9.65;7.15;;;1.90;38.20;;;;;;5052849;28;20244;-74
2021/03/25 03:12:48;;;;;;;10.55;7.05;;;1.90;38.20;;;;;;5053407;28;20248;-75
2021/03/25 03:15:35;;;;;;;6.47;5.53;;;1.90;38.40;;;;;;5053384;28;20173;-75
2021/03/25 03:18:05;;;;;;;7.47;6.45;;;1.80;38.60;;;;;;5051938;28;20239;-73
2021/03/25 03:20:54;;;;;;;7.53;5.90;;;1.80;39.00;;;;;;5051664;28;20197;-74
2021/03/25 03:23:22;;;;;;;13.23;6.40;;;1.80;39.10;;;;;;5051882;28;20178;-73
2021/03/25 03:25:47;;;;;;;6.85;6.15;;;1.80;39.40;;;;;;5053246;28;20180;-73
2021/03/25 03:28:18;;;;;;;6.97;6.30;;;1.70;39.80;;;;;;5051727;28;20609;-75
2021/03/25 03:30:55;;;;;;;9.65;5.97;;;1.70;39.90;;;;;;5052448;28;20180;-74
2021/03/25 03:33:44;;;;;;;9.02;7.18;;;1.80;40.00;;;;;;5052098;28;20550;-75
2021/03/25 03:36:17;;;;;;;6.07;5.50;;;1.80;39.90;;;;;;5051792;28;20170;-75
2021/03/25 03:38:52;;;;;;;7.32;5.65;;;1.80;39.60;;;;;;5052556;28;20193;-75
2021/03/25 03:41:31;;;;;;;9.38;5.93;;;1.80;39.40;;;;;;5051592;28;20174;-74
2021/03/25 03:43:59;;;;;;;8.70;6.03;;;1.70;39.20;;;;;;5052789;28;20181;-75
2021/03/25 03:46:28;;;;;;;7.72;5.65;;;1.70;39.70;;;;;;5052781;28;20174;-75
2021/03/25 03:48:57;;;;;;;8.30;6.38;;;1.70;39.50;;;;;;5052063;28;20196;-73
2021/03/25 03:51:38;;;;;;;9.43;6.45;;;1.70;39.60;;;;;;5051407;28;20300;-74
2021/03/25 03:54:05;;;;;;;8.50;6.45;;;1.70;39.70;;;;;;5052577;28;20178;-75
2021/03/25 03:56:45;;;;;;;10.75;7.15;;;1.60;39.60;;;;;;5052708;28;20213;-74
2021/03/25 03:59:23;;;;;;;6.80;6.10;;;1.60;39.80;;;;;;5051847;28;20190;-73
2021/03/25 04:01:53;;;;;;;7.10;5.30;;;1.50;40.30;;;;;;5051083;28;20272;-74
2021/03/25 04:04:28;;;;;;;9.23;6.00;;;1.60;40.40;;;;;;5052912;28;20198;-73
2021/03/25 04:07:00;;;;;;;7.45;6.68;;;1.60;40.40;;;;;;5051520;28;20192;-76
2021/03/25 04:09:43;;;;;;;11.45;7.32;;;1.60;40.30;;;;;;5052008;28;20308;-75
2021/03/25 04:12:13;;;;;;;6.57;5.60;;;1.50;40.40;;;;;;5052301;28;20193;-73
2021/03/25 04:14:46;;;;;;;9.75;7.45;;;1.50;41.00;;;;;;5050981;28;20181;-75
2021/03/25 04:17:16;;;;;;;7.68;6.68;;;1.50;40.30;;;;;;5052633;28;20268;-75
2021/03/25 04:19:44;;;;;;;8.43;7.53;;;1.50;40.40;;;;;;5050332;28;20196;-75
2021/03/25 04:22:18;;;;;;;9.00;6.15;;;1.50;40.80;;;;;;5052103;28;20208;-73
2021/03/25 04:24:50;;;;;;;7.88;6.68;;;1.50;40.50;;;;;;5050818;28;20200;-75
2021/03/25 04:27:19;;;;;;;5.53;5.03;;;1.50;40.80;;;;;;5050753;28;20238;-75
2021/03/25 04:29:54;;;;;;;8.38;6.68;;;1.60;41.30;;;;;;5051440;28;20227;-75
2021/03/25 04:32:20;;;;;;;7.10;6.38;;;1.50;41.00;;;;;;5051579;28;20536;-76
2021/03/25 04:34:48;;;;;;;6.20;5.70;;;1.60;41.30;;;;;;5050478;28;20185;-75
2021/03/25 04:37:15;;;;;;;13.27;6.85;;;1.50;40.90;;;;;;5051822;28;20511;-75
2021/03/25 04:39:41;;;;;;;6.47;5.90;;;1.60;41.00;;;;;;5049820;28;20612;-73
2021/03/25 04:42:08;;;;;;;7.25;6.10;;;1.50;41.00;;;;;;5051720;28;20194;-73
2021/03/25 04:44:46;;;;;;;14.23;6.60;;;1.50;41.00;;;;;;5051587;28;20188;-75
2021/03/25 04:47:22;;;;;;;8.27;6.95;;;1.50;40.70;;;;;;5051635;28;20581;-73
2021/03/25 04:50:04;;;;;;;9.88;7.53;;;1.50;40.50;;;;;;5051052;28;20177;-75
2021/03/25 04:52:33;;;;;;;10.18;6.70;;;1.50;41.20;;;;;;5051419;28;20249;-75
2021/03/25 04:55:19;;;;;;;7.95;6.38;;;1.50;41.60;;;;;;5051473;28;20180;-75
2021/03/25 04:57:57;;;;;;;10.25;6.72;;;1.50;41.60;;;;;;5050156;28;20215;-75
2021/03/25 05:00:29;;;;;;;11.93;7.15;;;1.50;41.50;;;;;;5050960;28;20175;-74
2021/03/25 05:02:55;;;;;;;7.40;6.43;;;1.50;41.50;;;;;;5051312;28;20181;-76
2021/03/25 05:05:29;;;;;;;8.33;7.53;;;1.50;41.40;;;;;;5050325;28;20589;-75
2021/03/25 05:08:07;;;;;;;9.93;7.00;;;1.50;41.40;;;;;;5040236;22;720000;-73
2021/03/25 05:10:51;;;;;;;10.82;6.65;;;1.50;41.40;;;;;;5022235;28;20197;-73
2021/03/25 05:13:25;;;;;;;7.55;6.57;;;1.50;41.00;;;;;;5023674;28;20186;-73
2021/03/25 05:16:16;;;;;;;7.88;6.30;;;1.50;41.10;;;;;;5022791;28;20201;-74
2021/03/25 05:18:56;;;;;;;9.80;7.35;;;1.40;41.30;;;;;;5022895;28;20201;-73
2021/03/25 05:21:53;;;;;;;9.98;6.47;;;1.40;41.80;;;;;;5023564;28;20205;-69
2021/03/25 05:24:37;;;;;;;8.02;6.53;;;1.50;41.70;;;;;;4989949;28;20250;-74
2021/03/25 05:27:33;;;;;;;5.80;5.30;;;1.50;41.70;;;;;;5021673;28;20205;-72
2021/03/25 05:30:00;;;;;;;6.90;5.65;;;1.50;41.00;;;;;;5020962;28;20202;-70
2021/03/25 05:32:31;;;;;;;8.82;7.28;;;1.50;41.10;;;;;;5019650;28;20217;-69
2021/03/25 05:35:00;;;;;;;10.35;6.75;;;1.50;41.10;;;;;;5021453;28;20208;-72
2021/03/25 05:37:26;;;;;;;10.70;7.72;;;1.50;41.20;;;;;;5022805;28;20184;-72
2021/03/25 05:39:51;;;;;;;14.03;7.10;;;1.50;41.20;;;;;;5022518;28;20195;-72
2021/03/25 05:42:39;;;;;;;17.40;7.03;;;1.60;41.50;;;;;;5005033;28;20424;-71
2021/03/25 05:45:07;;;;;;;11.32;7.10;;;1.70;40.80;;;;;;5023439;28;20186;-71
2021/03/25 05:48:05;;;;;;;8.52;6.40;;;1.80;40.20;;;;;;5023499;28;20178;-71
2021/03/25 05:50:49;;;;;;;8.80;7.32;;;1.90;39.40;;;;;;5022107;28;20633;-72
2021/03/25 05:53:44;;;;;;;10.75;7.53;;;1.90;39.60;;;;;;5022289;28;20222;-73
2021/03/25 05:56:21;;;;;;;9.60;6.40;;;2.00;39.10;;;;;;5022706;28;20181;-73
2021/03/25 05:58:53;;;;;;;11.85;6.93;;;2.10;39.10;;;;;;4996838;28;20202;-70
2021/03/25 06:01:24;;;;;;;8.75;5.80;;;2.40;38.30;;;;;;4998790;28;20189;-70
2021/03/25 06:04:01;;;;;;;9.50;7.25;;;2.60;36.20;;;;;;5004867;28;20194;-72
2021/03/25 06:06:42;;;;;;;9.30;6.85;;;2.80;36.30;;;;;;5017283;28;20192;-71
2021/03/25 06:09:10;;;;;;;15.80;6.25;;;3.10;35.90;;;;;;5000836;28;20216;-71
2021/03/25 06:11:41;;;;;;;8.82;6.55;;;3.60;34.30;;;;;;5001879;28;20698;-72
2021/03/25 06:14:21;;;;;;;9.40;6.68;;;4.10;32.60;;;;;;5005322;28;20177;-71
2021/03/25 06:16:52;;;;;;;6.53;5.90;;;4.80;30.00;;;;;;5006598;28;20183;-69
2021/03/25 06:19:49;;;;;;;15.85;14.32;;;5.60;28.80;;;;;;5014670;28;20206;-72
2021/03/25 06:22:49;;;;;;;16.55;13.52;;;6.40;25.20;;;;;;5027716;28;20186;-70
2021/03/25 06:25:41;;;;;;;13.00;7.63;;;7.00;24.70;;;;;;5019745;28;20190;-70
2021/03/25 06:28:15;;;;;;;10.73;7.22;;;7.70;22.30;;;;;;5003507;28;20264;-70
2021/03/25 06:31:00;;;;;;;7.13;6.43;;;8.10;22.10;;;;;;5000411;28;20191;-71
2021/03/25 06:33:32;;;;;;;8.00;7.30;;;8.50;21.80;;;;;;5015443;28;20418;-70
2021/03/25 06:36:03;;;;;;;9.90;7.23;;;9.00;20.30;;;;;;5017534;28;20471;-68
2021/03/25 06:38:33;;;;;;;7.97;7.27;;;9.30;19.70;;;;;;5016579;28;20795;-70
2021/03/25 06:41:02;;;;;;;9.00;8.20;;;;;;;;;;4999713;28;20791;-69
2021/03/25 06:43:47;;;;;;;8.87;7.87;;;10.00;17.90;;;;;;5018041;28;20800;-71
2021/03/25 06:46:37;;;;;;;8.63;7.20;;;10.40;16.10;;;;;;5001464;28;20428;-70
2021/03/25 06:49:18;;;;;;;10.27;6.90;;;10.50;16.20;;;;;;4999491;28;20548;-71
2021/03/25 06:51:44;;;;;;;10.10;7.60;;;10.30;16.50;;;;;;5017053;28;20455;-71
2021/03/25 06:54:20;;;;;;;8.63;7.83;;;10.20;16.80;;;;;;5018296;28;20427;-71
2021/03/25 06:56:51;;;;;;;10.77;9.10;;;10.30;16.60;;;;;;5021756;28;20180;-71
2021/03/25 06:59:34;;;;;;;10.00;9.20;;;10.80;16.20;;;;;;5020914;28;20531;-71
2021/03/25 07:02:08;;;;;;;11.80;10.70;;;11.40;15.40;;;;;;5022059;28;20418;-71
2021/03/25 07:04:40;;;;;;;9.80;9.00;;;11.80;14.20;;;;;;5022076;28;20992;-72
2021/03/25 07:07:10;;;;;;;11.47;9.23;;;11.70;14.10;;;;;;5018866;28;20448;-71
2021/03/25 07:09:38;;;;;;;9.83;9.07;;;11.50;14.40;;;;;;5013268;28;20471;-71
2021/03/25 07:12:33;;;;;;;11.07;10.03;;;11.10;14.70;;;;;;5020818;28;20484;-71
2021/03/25 07:15:00;;;;;;;12.00;10.80;;;10.80;15.30;;;;;;5019156;28;20955;-73
2021/03/25 07:17:39;;;;;;;10.23;9.53;;;10.30;15.40;;;;;;5021869;28;20471;-71
2021/03/25 07:20:20;;;;;;;12.07;10.93;;;10.00;16.20;;;;;;5020779;28;20431;-72
2021/03/25 07:23:09;;;;;;;11.50;10.40;;;9.70;17.70;;;;;;5003537;28;20951;-71
2021/03/25 07:25:41;;;;;;;14.63;11.90;;;9.60;18.10;;;;;;5020293;28;20420;-71
2021/03/25 07:28:17;;;;;;;11.60;10.50;;;9.50;19.10;;;;;;5018220;28;20442;-71
2021/03/25 07:31:03;;;;;;;9.50;8.80;;;9.30;19.30;;;;;;5015848;28;20418;-71
2021/03/25 07:33:38;;;;;;;11.13;10.03;;;9.10;20.50;;;;;;4993839;28;20438;-72
2021/03/25 07:36:13;;;;;;;8.77;8.17;;;9.00;20.80;;;;;;5012191;28;20426;-74
2021/03/25 07:38:42;;;;;;;10.03;9.10;;;8.90;20.70;;;;;;5012117;28;20459;-74
2021/03/25 07:41:18;;;;;;;9.90;9.00;;;8.90;21.00;;;;;;5010986;28;20470;-71
2021/03/25 07:44:25;;;;;;;12.67;11.23;;;8.90;20.60;;;;;;5012386;28;21029;-71
2021/03/25 07:46:57;;;;;;;11.33;10.47;;;9.00;20.80;;;;;;4998410;28;20450;-71
2021/03/25 07:49:35;;;;;;;11.20;10.10;;;9.20;20.60;;;;;;5012046;28;20546;-73
2021/03/25 07:52:32;;;;;;;11.10;10.00;;;9.40;20.20;;;;;;4993108;28;20524;-73
2021/03/25 07:55:19;;;;;;;12.40;10.17;;;9.40;20.60;;;;;;5006615;28;20531;-73
2021/03/25 07:57:47;;;;;;;13.30;11.00;;;9.50;20.30;;;;;;5003642;28;20420;-73
2021/03/25 08:00:20;;;;;;;10.60;9.70;;;9.70;19.30;;;;;;5004261;28;20431;-72
2021/03/25 08:02:46;;;;;;;11.23;8.93;;;9.80;19.50;;;;;;5014442;28;20421;-72
2021/03/25 08:05:24;;;;;;;9.83;9.10;;;9.90;19.00;;;;;;5020203;28;20930;-72
2021/03/25 08:07:53;;;;;;;11.27;9.17;;;10.00;18.30;;;;;;5009483;28;20595;-71
2021/03/25 08:10:31;;;;;;;15.10;10.37;;;10.10;17.70;;;;;;5021003;28;20440;-72
2021/03/25 08:13:17;;;;;;;12.07;10.97;;;10.20;18.30;;;;;;5017490;28;20466;-73
2021/03/25 08:16:04;;;;;;;9.53;8.83;;;10.50;18.20;;;;;;5016319;28;20481;-72
2021/03/25 08:19:01;;;;;;;11.03;9.93;;;10.70;17.40;;;;;;5025729;28;20426;-72
2021/03/25 08:21:26;;;;;;;11.33;10.20;;;10.80;16.60;;;;;;5023973;28;20453;-72
2021/03/25 08:23:58;;;;;;;14.93;10.70;;;10.90;16.70;;;;;;5022095;28;20429;-73
2021/03/25 08:26:38;;;;;;;10.93;9.93;;;11.00;16.80;;;;;;5027658;28;20197;-72
2021/03/25 08:29:03;;;;;;;11.27;10.20;;;11.10;16.90;;;;;;5025199;28;20531;-72
2021/03/25 08:32:07;;;;;;;11.67;10.70;;;11.20;16.80;;;;;;5014974;28;20497;-74
2021/03/25 08:34:47;;;;;;;11.07;10.10;;;11.30;16.20;;;;;;4951747;28;20229;-73
2021/03/25 08:37:35;;;;;;;13.97;10.70;;;11.50;16.00;;;;;;5006655;28;20439;-71
2021/03/25 08:40:21;;;;;;;9.83;9.07;;;11.70;15.70;;;;;;5011756;28;20440;-70
2021/03/25 08:42:54;;;;;;;11.47;10.47;;;11.70;15.80;;;;;;5011670;28;20428;-72
2021/03/25 08:45:36;;;;;;;10.67;9.77;;;11.90;15.40;;;;;;5024887;28;20420;-72
2021/03/25 08:48:18;;;;;;;12.77;11.70;;;12.10;15.50;;;;;;5030202;28;20434;-71
2021/03/25 08:51:02;;;;;;;10.80;9.80;;;12.20;15.60;;;;;;5028550;28;20789;-73
2021/03/25 08:53:37;;;;;;;10.80;9.97;;;12.40;15.40;;;;;;5028834;28;20804;-72
2021/03/25 08:56:15;;;;;;;11.23;10.53;;;12.40;14.60;;;;;;5028375;28;20403;-73
2021/03/25 08:58:42;;;;;;;11.20;10.40;;;12.50;14.90;;;;;;5029088;28;20442;-72
2021/03/25 09:01:15;;;;;;;11.37;10.57;;;12.60;14.30;;;;;;5026609;28;20418;-73
2021/03/25 09:03:48;;;;;;;11.33;10.43;;;12.70;14.70;;;;;;5019091;28;20422;-72
2021/03/25 09:06:23;;;;;;;12.30;11.40;;;12.80;14.80;;;;;;5021583;28;20429;-72
2021/03/25 09:08:54;;;;;;;11.67;10.87;;;12.90;13.80;;;;;;5020966;28;20799;-73
2021/03/25 09:11:20;;;;;;;12.60;11.47;;;13.10;13.20;;;;;;5025588;28;20552;-71
2021/03/25 09:13:56;;;;;;;11.03;10.20;;;13.30;13.10;;;;;;5021943;28;20429;-72
2021/03/25 09:16:25;;;;;;;11.53;10.60;;;13.50;13.40;;;;;;4995539;28;20554;-71
2021/03/25 09:18:52;;;;;;;10.37;9.70;;;13.70;12.20;;;;;;5012127;28;20445;-72
2021/03/25 09:21:22;;;;;;;11.07;10.17;;;13.70;12.90;;;;;;5013265;28;20430;-72
2021/03/25 09:24:00;;;;;;;17.57;12.73;;;13.90;12.30;;;;;;5011893;28;20415;-71
2021/03/25 09:26:25;;;;;;;10.90;10.20;;;14.10;11.70;;;;;;5012070;28;20427;-71
2021/03/25 09:29:00;;;;;;;11.30;10.50;;;14.30;11.40;;;;;;5012653;28;20550;-72
2021/03/25 09:31:35;;;;;;;11.83;10.73;;;14.40;11.50;;;;;;5013444;28;20530;-72
2021/03/25 09:34:10;;;;;;;10.90;10.00;;;14.60;11.20;;;;;;5012313;28;20496;-72
2021/03/25 09:36:35;;;;;;;11.17;10.37;;;14.70;11.10;;;;;;5011993;28;20477;-72
2021/03/25 09:39:04;;;;;;;12.07;11.17;;;14.80;11.40;;;;;;5010415;28;20432;-72
2021/03/25 09:41:30;;;;;;;11.60;10.63;;;15.00;10.70;;;;;;5010973;28;20650;-73
2021/03/25 09:44:05;;;;;;;12.73;11.70;;;15.10;10.60;;;;;;5011264;28;20799;-72
2021/03/25 09:46:48;;;;;;;12.27;11.20;;;15.40;9.60;;;;;;4993259;28;20498;-72
2021/03/25 09:49:32;;;;;;;11.40;10.70;;;15.50;9.90;;;;;;5010390;28;20476;-73
2021/03/25 09:52:11;;;;;;;11.43;10.63;;;15.60;9.70;;;;;;5010944;28;20461;-72
2021/03/25 09:55:08;;;;;;;11.40;10.70;;;15.70;9.60;;;;;;4983174;28;20449;-72
2021/03/25 09:57:36;;;;;;;13.70;11.33;;;15.90;9.40;;;;;;4998283;28;20915;-72
2021/03/25 10:00:31;;;;;;;12.40;11.77;;;15.90;10.10;;;;;;4994302;28;20764;-72
2021/03/25 10:02:58;;;;;;;12.23;11.30;;;16.00;9.30;;;;;;5005690;28;20951;-72
2021/03/25 10:05:24;;;;;;;11.87;11.17;;;15.90;8.70;;;;;;4987914;28;20504;-73
2021/03/25 10:07:55;;;;;;;12.60;11.50;;;16.10;9.40;;;;;;4987677;28;20419;-72
2021/03/25 10:10:35;;;;;;;14.33;11.27;;;16.20;9.50;;;;;;4999610;28;20187;-75
2021/03/25 10:13:01;;;;;;;11.60;10.87;;;16.20;9.50;;;;;;5006833;28;20563;-72
2021/03/25 10:15:41;;;;;;;11.27;10.60;;;16.30;8.80;;;;;;5002725;28;20585;-73
2021/03/25 10:18:16;;;;;;;12.60;11.77;;;16.40;9.60;;;;;;5006324;28;20203;-72
2021/03/25 10:20:45;;;;;;;18.13;12.23;;;16.50;8.70;;;;;;5003692;28;20430;-72
2021/03/25 10:23:44;;;;;;;11.60;10.90;;;16.50;8.80;;;;;;5026703;28;20433;-73
2021/03/25 10:26:25;;;;;;;13.43;12.30;;;16.60;8.60;;;;;;5026749;28;20430;-73
2021/03/25 10:29:04;;;;;;;12.70;11.87;;;16.60;9.00;;;;;;5008937;28;20817;-73
2021/03/25 10:31:35;;;;;;;12.37;11.57;;;16.80;8.90;;;;;;5030049;28;20467;-72
2021/03/25 10:34:12;;;;;;;13.70;12.80;;;16.90;8.80;;;;;;5030285;28;20410;-73
2021/03/25 10:36:52;;;;;;;13.43;12.63;;;17.10;8.90;;;;;;5012409;28;20445;-73
2021/03/25 10:39:28;;;;;;;11.77;11.17;;;17.20;7.90;;;;;;5029932;28;20477;-73
2021/03/25 10:41:55;;;;;;;12.00;11.27;;;17.10;8.60;;;;;;5030300;28;20419;-73
2021/03/25 10:44:34;;;;;;;14.07;13.13;;;16.90;8.20;;;;;;5029655;28;20422;-73
2021/03/25 10:47:19;;;;;;;12.80;11.77;;;16.80;8.40;;;;;;5029768;28;20447;-72
2021/03/25 10:49:54;;;;;;;12.67;11.90;;;16.70;9.00;;;;;;5029662;28;20985;-71
2021/03/25 10:52:37;;;;;;;14.87;13.67;;;16.90;9.40;;;;;;5030003;28;20492;-71
2021/03/25 10:55:18;;;;;;;14.47;13.13;;;17.10;8.70;;;;;;5030289;28;20507;-71
2021/03/25 10:57:48;;;;;;;14.00;12.80;;;17.20;8.10;;;;;;5029536;28;20564;-71
2021/03/25 11:00:17;;;;;;;12.90;12.20;;;17.40;7.80;;;;;;5029377;28;20409;-71
2021/03/25 11:02:44;;;;;;;12.70;12.00;;;17.40;8.00;;;;;;5029694;28;21107;-71
2021/03/25 11:05:18;;;;;;;11.97;11.27;;;17.50;7.60;;;;;;5029383;28;20453;-71
2021/03/25 11:07:50;;;;;;;12.03;11.33;;;17.60;6.60;;;;;;5029307;28;20788;-72
2021/03/25 11:10:18;;;;;;;13.30;12.40;;;17.60;7.10;;;;;;5037178;28;20438;-70
2021/03/25 11:12:44;;;;;;;14.83;13.70;;;17.60;6.80;;;;;;5039334;28;20687;-71
2021/03/25 11:15:50;;;;;;;13.63;12.93;;;17.60;6.20;;;;;;5040761;28;20510;-73
2021/03/25 11:18:19;;;;;;;13.37;12.30;;;17.80;6.50;;;;;;5029734;28;20461;-72
2021/03/25 11:20:45;;;;;;;12.90;12.10;;;18.00;6.20;;;;;;5040436;28;20454;-71
2021/03/25 11:23:15;;;;;;;12.50;11.80;;;18.00;6.20;;;;;;5039337;28;20481;-72
2021/03/25 11:25:41;;;;;;;13.07;12.27;;;18.00;6.20;;;;;;5042798;28;20418;-72
2021/03/25 11:28:12;;;;;;;14.43;13.17;;;18.00;6.60;;;;;;5041824;28;20458;-73
2021/03/25 11:30:54;;;;;;;13.20;12.07;;;18.10;6.20;;;;;;5042959;28;20497;-72
2021/03/25 11:33:28;;;;;;;12.97;12.17;;;18.30;5.70;;;;;;5022168;28;20434;-72
2021/03/25 11:35:55;;;;;;;14.07;13.20;;;18.30;5.30;;;;;;5039980;28;20657;-72
2021/03/25 11:38:29;;;;;;;13.20;12.50;;;18.30;5.70;;;;;;5021592;28;20457;-72
2021/03/25 11:40:56;;;;;;;14.27;13.47;;;18.30;5.50;;;;;;5035299;28;20971;-72
2021/03/25 11:43:37;;;;;;;13.27;12.53;;;18.30;6.30;;;;;;5036153;28;20424;-72
2021/03/25 11:46:03;;;;;;;14.17;13.47;;;18.40;5.10;;;;;;5008146;28;20827;-72
2021/03/25 11:48:32;;;;;;;13.57;12.80;;;18.40;5.40;;;;;;4997806;28;20440;-71
2021/03/25 11:51:17;;;;;;;13.97;12.80;;;18.50;4.80;;;;;;4996912;28;20311;-70
2021/03/25 11:53:55;;;;;;;13.90;13.20;;;18.50;3.20;;;;;;4997436;28;20415;-73
2021/03/25 11:56:23;;;;;;;13.20;12.50;;;18.50;3.90;;;;;;4998211;28;20423;-72
2021/03/25 11:59:03;;;;;;;16.73;15.63;;;18.50;4.40;;;;;;4979869;28;20498;-71
2021/03/25 12:01:30;;;;;;;16.37;14.80;;;18.60;5.30;;;;;;4996535;28;20427;-71
2021/03/25 12:04:19;;;;;;;14.73;13.93;;;18.60;4.80;;;;;;4997409;28;20424;-72
2021/03/25 12:07:05;;;;;;;14.80;14.10;;;18.50;3.30;;;;;;4994864;28;20962;-70
2021/03/25 12:09:32;;;;;;;14.77;13.77;;;18.60;3.70;;;;;;4982012;28;20899;-72
2021/03/25 12:12:00;;;;;;;14.90;13.90;;;18.70;3.50;;;;;;4997211;28;20477;-72
2021/03/25 12:14:26;;;;;;;15.60;14.80;;;18.80;4.10;;;;;;4996588;28;20416;-71
2021/03/25 12:16:53;;;;;;;16.30;15.43;;;18.90;3.70;;;;;;4999707;28;20475;-71
2021/03/25 12:19:18;;;;;;;16.30;15.20;;;19.00;3.40;;;;;;4998454;28;20979;-71
2021/03/25 12:21:44;;;;;;;15.50;14.70;;;19.10;4.10;;;;;;4998974;28;20506;-72
2021/03/25 12:24:11;;;;;;;15.80;14.83;;;19.20;3.80;;;;;;4998718;28;20208;-71
2021/03/25 12:26:37;;;;;;;16.27;15.03;;;19.20;3.00;;;;;;4998463;28;20185;-71
2021/03/25 12:29:05;;;;;;;15.90;15.10;;;19.20;2.70;;;;;;4998526;28;20523;-72
2021/03/25 12:31:35;;;;;;;17.00;15.87;;;19.10;2.40;;;;;;4999434;28;20256;-72
2021/03/25 12:34:00;;;;;;;17.33;16.33;;;19.10;2.30;;;;;;4996882;28;20404;-73
2021/03/25 12:36:27;;;;;;;17.23;15.97;;;19.10;2.30;;;;;;4995392;28;20474;-72
2021/03/25 12:38:53;;;;;;;14.77;14.03;;;19.10;2.30;;;;;;4993793;28;20537;-72
2021/03/25 12:41:35;;;;;;;15.50;14.80;;;19.30;2.90;;;;;;4994892;28;20431;-72
2021/03/25 12:44:01;;;;;;;14.27;13.63;;;19.50;2.30;;;;;;5013010;28;20199;-72
2021/03/25 12:46:30;;;;;;;14.33;13.73;;;19.50;2.20;;;;;;5017607;28;20429;-73
2021/03/25 12:48:56;;;;;;;14.90;14.20;;;19.50;1.10;;;;;;5015407;28;20530;-72
2021/03/25 12:51:22;;;;;;;13.90;13.30;;;19.50;2.00;;;;;;5017191;28;20525;-72
2021/03/25 12:53:48;;;;;;;14.47;13.77;;;19.60;2.30;;;;;;5017942;28;20176;-71
2021/03/25 12:56:20;;;;;;;14.53;13.73;;;19.70;1.10;;;;;;5017250;28;20424;-72
2021/03/25 12:58:47;;;;;;;14.37;13.67;;;19.70;1.60;;;;;;5016673;28;20479;-72
2021/03/25 13:01:17;;;;;;;13.47;12.97;;;19.70;1.00;;;;;;5016285;28;20477;-72
2021/03/25 13:03:43;;;;;;;14.43;13.80;;;19.70;1.00;;;;;;5016315;28;20418;-72
2021/03/25 13:06:11;;;;;;;14.13;13.47;;;19.70;1.00;;;;;;5016931;28;20916;-73
2021/03/25 13:08:37;;;;;;;14.73;14.03;;;19.60;1.00;;;;;;5016439;28;20463;-72
2021/03/25 13:11:03;;;;;;;14.10;13.50;;;19.50;1.00;;;;;;5017104;28;20833;-72
2021/03/25 13:13:29;;;;;;;17.63;16.73;;;19.30;1.00;;;;;;5017068;28;20505;-71
2021/03/25 13:15:55;;;;;;;15.00;14.37;;;19.30;1.00;;;;;;5017414;28;20422;-71
2021/03/25 13:18:21;;;;;;;15.57;14.87;;;19.30;1.00;;;;;;5014629;28;20439;-71
2021/03/25 13:20:48;;;;;;;13.70;13.20;;;19.20;1.40;;;;;;5015732;28;20541;-72
2021/03/25 13:23:14;;;;;;;17.33;16.23;;;19.10;1.10;;;;;;5015805;28;20514;-72